sensor_id;sensor_type;location;lat;lon;timestamp;pressure;altitude;pressure_sealevel;temperature;humidity
63306;BME280;50735;52.060;1.248;2022-12-10T00:01:25;100599.44;;;-1.29;54.66
63306;BME280;50735;52.060;1.248;2022-12-10T00:03:53;100600.13;;;-0.98;54.27
63306;BME280;50735;52.060;1.248;2022-12-10T00:06:22;100598.84;;;-1.05;53.91
63306;BME280;50735;52.060;1.248;2022-12-10T00:08:49;100598.43;;;-1.01;53.56
63306;BME280;50735;52.060;1.248;2022-12-10T00:11:18;100599.34;;;-0.82;53.53
63306;BME280;50735;52.060;1.248;2022-12-10T00:13:46;100600.37;;;-0.68;53.05
63306;BME280;50735;52.060;1.248;2022-12-10T00:16:15;100600.57;;;-0.86;52.96
63306;BME280;50735;52.060;1.248;2022-12-10T00:18:43;100600.05;;;-1.10;53.91
63306;BME280;50735;52.060;1.248;2022-12-10T00:21:12;100599.75;;;-1.10;54.18
63306;BME280;50735;52.060;1.248;2022-12-10T00:23:40;100599.64;;;-1.70;54.73
63306;BME280;50735;52.060;1.248;2022-12-10T00:26:10;100600.69;;;-1.26;54.57
63306;BME280;50735;52.060;1.248;2022-12-10T00:28:37;100601.96;;;-1.10;54.20
63306;BME280;50735;52.060;1.248;2022-12-10T00:31:06;100601.54;;;-0.95;53.53
63306;BME280;50735;52.060;1.248;2022-12-10T00:33:34;100601.52;;;-0.83;53.19
63306;BME280;50735;52.060;1.248;2022-12-10T00:36:02;100603.18;;;-1.05;53.44
63306;BME280;50735;52.060;1.248;2022-12-10T00:38:30;100606.86;;;-0.83;53.08
63306;BME280;50735;52.060;1.248;2022-12-10T00:40:57;100607.97;;;-0.91;53.59
63306;BME280;50735;52.060;1.248;2022-12-10T00:43:24;100606.05;;;-1.22;53.86
63306;BME280;50735;52.060;1.248;2022-12-10T00:45:52;100602.83;;;-1.36;54.17
63306;BME280;50735;52.060;1.248;2022-12-10T00:48:19;100606.19;;;-1.16;53.95
63306;BME280;50735;52.060;1.248;2022-12-10T00:50:55;100606.77;;;-1.20;54.47
63306;BME280;50735;52.060;1.248;2022-12-10T00:53:22;100603.96;;;-1.31;54.54
63306;BME280;50735;52.060;1.248;2022-12-10T00:55:49;100602.95;;;-1.43;54.25
63306;BME280;50735;52.060;1.248;2022-12-10T00:58:15;100603.34;;;-1.45;54.16
63306;BME280;50735;52.060;1.248;2022-12-10T01:00:42;100606.93;;;-1.14;53.70
63306;BME280;50735;52.060;1.248;2022-12-10T01:03:09;100609.70;;;-1.27;53.70
63306;BME280;50735;52.060;1.248;2022-12-10T01:05:36;100612.48;;;-1.09;53.53
63306;BME280;50735;52.060;1.248;2022-12-10T01:08:03;100612.07;;;-1.13;53.62
63306;BME280;50735;52.060;1.248;2022-12-10T01:10:29;100610.45;;;-1.20;54.01
63306;BME280;50735;52.060;1.248;2022-12-10T01:12:56;100612.83;;;-1.20;54.11
63306;BME280;50735;52.060;1.248;2022-12-10T01:15:23;100617.71;;;-1.12;53.71
63306;BME280;50735;52.060;1.248;2022-12-10T01:17:50;100620.64;;;-1.07;53.36
63306;BME280;50735;52.060;1.248;2022-12-10T01:20:17;100622.84;;;-1.23;53.54
63306;BME280;50735;52.060;1.248;2022-12-10T01:22:44;100624.93;;;-1.24;54.29
63306;BME280;50735;52.060;1.248;2022-12-10T01:25:11;100625.35;;;-1.40;54.52
63306;BME280;50735;52.060;1.248;2022-12-10T01:27:38;100626.33;;;-1.73;54.76
63306;BME280;50735;52.060;1.248;2022-12-10T01:30:06;100629.90;;;-2.37;56.62
63306;BME280;50735;52.060;1.248;2022-12-10T01:32:34;100627.47;;;-2.09;56.14
63306;BME280;50735;52.060;1.248;2022-12-10T01:35:00;100630.11;;;-1.79;55.09
63306;BME280;50735;52.060;1.248;2022-12-10T01:37:27;100631.45;;;-1.59;54.81
63306;BME280;50735;52.060;1.248;2022-12-10T01:39:54;100629.31;;;-1.69;55.11
63306;BME280;50735;52.060;1.248;2022-12-10T01:42:22;100632.40;;;-1.61;54.75
63306;BME280;50735;52.060;1.248;2022-12-10T01:45:01;100634.07;;;-1.47;54.36
63306;BME280;50735;52.060;1.248;2022-12-10T01:47:29;100635.71;;;-1.45;54.31
63306;BME280;50735;52.060;1.248;2022-12-10T01:49:57;100636.14;;;-1.78;54.84
63306;BME280;50735;52.060;1.248;2022-12-10T01:52:24;100634.92;;;-1.54;54.41
63306;BME280;50735;52.060;1.248;2022-12-10T01:54:51;100634.02;;;-1.74;55.12
63306;BME280;50735;52.060;1.248;2022-12-10T01:57:20;100636.45;;;-1.74;55.00
63306;BME280;50735;52.060;1.248;2022-12-10T01:59:49;100634.23;;;-1.80;55.48
63306;BME280;50735;52.060;1.248;2022-12-10T02:02:24;100631.16;;;-1.83;55.87
63306;BME280;50735;52.060;1.248;2022-12-10T02:05:01;100633.20;;;-1.58;55.48
63306;BME280;50735;52.060;1.248;2022-12-10T02:07:38;100634.56;;;-1.88;55.74
63306;BME280;50735;52.060;1.248;2022-12-10T02:10:11;100633.61;;;-2.12;56.30
63306;BME280;50735;52.060;1.248;2022-12-10T02:12:47;100634.22;;;-2.17;56.36
63306;BME280;50735;52.060;1.248;2022-12-10T02:15:18;100642.13;;;-2.08;56.77
63306;BME280;50735;52.060;1.248;2022-12-10T02:17:49;100641.22;;;-2.48;57.49
63306;BME280;50735;52.060;1.248;2022-12-10T02:20:19;100643.52;;;-2.56;57.43
63306;BME280;50735;52.060;1.248;2022-12-10T02:22:49;100641.24;;;-2.53;57.12
63306;BME280;50735;52.060;1.248;2022-12-10T02:25:20;100640.50;;;-2.55;57.27
63306;BME280;50735;52.060;1.248;2022-12-10T02:27:54;100638.40;;;-2.77;58.09
63306;BME280;50735;52.060;1.248;2022-12-10T02:30:24;100641.50;;;-3.11;58.90
63306;BME280;50735;52.060;1.248;2022-12-10T02:32:51;100642.47;;;-3.08;58.82
63306;BME280;50735;52.060;1.248;2022-12-10T02:35:22;100639.64;;;-2.94;58.58
63306;BME280;50735;52.060;1.248;2022-12-10T02:37:53;100637.49;;;-2.66;57.52
63306;BME280;50735;52.060;1.248;2022-12-10T02:40:24;100634.38;;;-2.24;57.65
63306;BME280;50735;52.060;1.248;2022-12-10T02:42:52;100633.70;;;-2.52;57.36
63306;BME280;50735;52.060;1.248;2022-12-10T02:45:22;100633.64;;;-2.58;57.73
63306;BME280;50735;52.060;1.248;2022-12-10T02:47:50;100631.12;;;-2.18;57.06
63306;BME280;50735;52.060;1.248;2022-12-10T02:50:20;100630.90;;;-2.22;56.95
63306;BME280;50735;52.060;1.248;2022-12-10T02:52:47;100627.87;;;-2.33;56.72
63306;BME280;50735;52.060;1.248;2022-12-10T02:55:15;100624.23;;;-2.28;56.70
63306;BME280;50735;52.060;1.248;2022-12-10T02:57:50;100622.70;;;-2.58;57.04
63306;BME280;50735;52.060;1.248;2022-12-10T03:00:22;100620.06;;;-3.05;57.87
63306;BME280;50735;52.060;1.248;2022-12-10T03:03:05;100616.14;;;-2.56;57.48
63306;BME280;50735;52.060;1.248;2022-12-10T03:05:42;100613.07;;;-2.40;56.75
63306;BME280;50735;52.060;1.248;2022-12-10T03:08:13;100612.68;;;-2.26;56.38
63306;BME280;50735;52.060;1.248;2022-12-10T03:10:48;100612.25;;;-2.29;56.50
63306;BME280;50735;52.060;1.248;2022-12-10T03:13:19;100617.06;;;-2.19;56.75
63306;BME280;50735;52.060;1.248;2022-12-10T03:15:49;100617.36;;;-2.68;57.87
63306;BME280;50735;52.060;1.248;2022-12-10T03:18:19;100617.05;;;-2.68;57.56
63306;BME280;50735;52.060;1.248;2022-12-10T03:20:50;100613.00;;;-2.68;58.37
63306;BME280;50735;52.060;1.248;2022-12-10T03:23:19;100611.35;;;-3.31;59.78
63306;BME280;50735;52.060;1.248;2022-12-10T03:25:47;100611.87;;;-3.00;59.76
63306;BME280;50735;52.060;1.248;2022-12-10T03:28:18;100614.13;;;-3.05;59.72
63306;BME280;50735;52.060;1.248;2022-12-10T03:30:47;100614.51;;;-3.38;61.24
63306;BME280;50735;52.060;1.248;2022-12-10T03:33:14;100609.39;;;-3.58;62.02
63306;BME280;50735;52.060;1.248;2022-12-10T03:35:42;100605.34;;;-2.89;61.57
63306;BME280;50735;52.060;1.248;2022-12-10T03:38:10;100608.57;;;-3.44;63.32
63306;BME280;50735;52.060;1.248;2022-12-10T03:40:37;100608.25;;;-2.85;62.95
63306;BME280;50735;52.060;1.248;2022-12-10T03:43:03;100613.20;;;-3.51;63.49
63306;BME280;50735;52.060;1.248;2022-12-10T03:45:31;100613.38;;;-3.63;63.78
63306;BME280;50735;52.060;1.248;2022-12-10T03:47:57;100615.09;;;-3.63;65.95
63306;BME280;50735;52.060;1.248;2022-12-10T03:50:24;100616.46;;;-4.44;66.61
63306;BME280;50735;52.060;1.248;2022-12-10T03:52:51;100618.58;;;-3.96;67.08
63306;BME280;50735;52.060;1.248;2022-12-10T03:55:18;100624.13;;;-3.66;65.89
63306;BME280;50735;52.060;1.248;2022-12-10T03:57:44;100626.56;;;-3.58;66.13
63306;BME280;50735;52.060;1.248;2022-12-10T04:00:12;100624.60;;;-3.57;65.28
63306;BME280;50735;52.060;1.248;2022-12-10T04:02:39;100620.76;;;-3.72;65.51
63306;BME280;50735;52.060;1.248;2022-12-10T04:05:06;100613.40;;;-3.85;65.99
63306;BME280;50735;52.060;1.248;2022-12-10T04:07:34;100611.68;;;-4.03;66.93
63306;BME280;50735;52.060;1.248;2022-12-10T04:10:01;100614.72;;;-4.06;66.12
63306;BME280;50735;52.060;1.248;2022-12-10T04:12:28;100615.25;;;-3.66;65.37
63306;BME280;50735;52.060;1.248;2022-12-10T04:14:55;100615.93;;;-3.97;66.31
63306;BME280;50735;52.060;1.248;2022-12-10T04:17:22;100615.77;;;-4.16;66.73
63306;BME280;50735;52.060;1.248;2022-12-10T04:19:49;100624.40;;;-3.24;65.50
63306;BME280;50735;52.060;1.248;2022-12-10T04:22:16;100622.42;;;-3.89;65.85
63306;BME280;50735;52.060;1.248;2022-12-10T04:24:42;100625.48;;;-3.49;65.82
63306;BME280;50735;52.060;1.248;2022-12-10T04:27:12;100624.10;;;-3.64;64.93
63306;BME280;50735;52.060;1.248;2022-12-10T04:29:39;100623.00;;;-3.01;64.24
63306;BME280;50735;52.060;1.248;2022-12-10T04:32:06;100621.79;;;-3.55;65.07
63306;BME280;50735;52.060;1.248;2022-12-10T04:34:33;100624.71;;;-3.46;65.38
63306;BME280;50735;52.060;1.248;2022-12-10T04:37:01;100628.18;;;-3.71;64.72
63306;BME280;50735;52.060;1.248;2022-12-10T04:39:29;100636.36;;;-3.32;64.76
63306;BME280;50735;52.060;1.248;2022-12-10T04:41:56;100637.44;;;-3.78;64.79
63306;BME280;50735;52.060;1.248;2022-12-10T04:44:23;100635.77;;;-3.99;66.61
63306;BME280;50735;52.060;1.248;2022-12-10T04:46:50;100632.46;;;-4.32;66.41
63306;BME280;50735;52.060;1.248;2022-12-10T04:49:17;100630.25;;;-4.09;67.33
63306;BME280;50735;52.060;1.248;2022-12-10T04:51:45;100630.22;;;-4.52;68.42
63306;BME280;50735;52.060;1.248;2022-12-10T04:54:12;100628.35;;;-4.65;68.23
63306;BME280;50735;52.060;1.248;2022-12-10T04:56:40;100626.51;;;-4.48;67.89
63306;BME280;50735;52.060;1.248;2022-12-10T04:59:07;100623.58;;;-4.75;68.54
63306;BME280;50735;52.060;1.248;2022-12-10T05:01:35;100628.12;;;-4.80;69.18
63306;BME280;50735;52.060;1.248;2022-12-10T05:04:05;100632.05;;;-4.96;70.05
63306;BME280;50735;52.060;1.248;2022-12-10T05:06:33;100629.93;;;-4.76;69.63
63306;BME280;50735;52.060;1.248;2022-12-10T05:09:00;100628.45;;;-4.29;68.05
63306;BME280;50735;52.060;1.248;2022-12-10T05:11:29;100630.79;;;-5.12;69.38
63306;BME280;50735;52.060;1.248;2022-12-10T05:13:57;100628.92;;;-4.13;68.77
63306;BME280;50735;52.060;1.248;2022-12-10T05:16:26;100630.62;;;-3.53;65.45
63306;BME280;50735;52.060;1.248;2022-12-10T05:18:55;100634.09;;;-3.78;65.85
63306;BME280;50735;52.060;1.248;2022-12-10T05:21:23;100632.70;;;-3.63;65.28
63306;BME280;50735;52.060;1.248;2022-12-10T05:23:52;100633.76;;;-3.71;66.08
63306;BME280;50735;52.060;1.248;2022-12-10T05:26:21;100638.49;;;-4.11;66.59
63306;BME280;50735;52.060;1.248;2022-12-10T05:28:50;100638.40;;;-4.18;66.61
63306;BME280;50735;52.060;1.248;2022-12-10T05:31:19;100639.37;;;-3.74;67.14
63306;BME280;50735;52.060;1.248;2022-12-10T05:33:48;100637.83;;;-3.70;66.11
63306;BME280;50735;52.060;1.248;2022-12-10T05:36:17;100637.11;;;-3.44;65.77
63306;BME280;50735;52.060;1.248;2022-12-10T05:38:45;100644.63;;;-3.05;65.00
63306;BME280;50735;52.060;1.248;2022-12-10T05:41:15;100647.98;;;-2.98;64.35
63306;BME280;50735;52.060;1.248;2022-12-10T05:43:43;100643.71;;;-3.75;65.99
63306;BME280;50735;52.060;1.248;2022-12-10T05:46:13;100641.72;;;-3.83;67.02
63306;BME280;50735;52.060;1.248;2022-12-10T05:48:40;100642.68;;;-4.04;67.75
63306;BME280;50735;52.060;1.248;2022-12-10T05:51:09;100640.48;;;-4.10;68.20
63306;BME280;50735;52.060;1.248;2022-12-10T05:53:37;100642.39;;;-4.04;67.67
63306;BME280;50735;52.060;1.248;2022-12-10T05:56:07;100643.84;;;-3.74;67.70
63306;BME280;50735;52.060;1.248;2022-12-10T05:58:35;100640.07;;;-4.04;67.16
63306;BME280;50735;52.060;1.248;2022-12-10T06:01:07;100643.54;;;-3.90;67.39
63306;BME280;50735;52.060;1.248;2022-12-10T06:03:34;100646.18;;;-3.76;67.46
63306;BME280;50735;52.060;1.248;2022-12-10T06:06:01;100648.37;;;-3.72;67.27
63306;BME280;50735;52.060;1.248;2022-12-10T06:08:27;100650.29;;;-3.70;67.85
63306;BME280;50735;52.060;1.248;2022-12-10T06:10:54;100652.67;;;-2.83;65.52
63306;BME280;50735;52.060;1.248;2022-12-10T06:13:21;100654.51;;;-3.02;65.84
63306;BME280;50735;52.060;1.248;2022-12-10T06:15:48;100656.00;;;-3.08;65.48
63306;BME280;50735;52.060;1.248;2022-12-10T06:18:15;100658.73;;;-2.95;65.68
63306;BME280;50735;52.060;1.248;2022-12-10T06:20:42;100657.27;;;-3.75;67.86
63306;BME280;50735;52.060;1.248;2022-12-10T06:23:09;100651.98;;;-4.05;68.80
63306;BME280;50735;52.060;1.248;2022-12-10T06:25:38;100651.84;;;-3.52;67.41
63306;BME280;50735;52.060;1.248;2022-12-10T06:28:05;100648.68;;;-3.47;67.55
63306;BME280;50735;52.060;1.248;2022-12-10T06:30:32;100649.01;;;-2.67;66.28
63306;BME280;50735;52.060;1.248;2022-12-10T06:33:00;100651.90;;;-2.69;66.15
63306;BME280;50735;52.060;1.248;2022-12-10T06:35:27;100648.87;;;-2.93;65.71
63306;BME280;50735;52.060;1.248;2022-12-10T06:37:53;100648.56;;;-2.64;64.64
63306;BME280;50735;52.060;1.248;2022-12-10T06:40:20;100645.60;;;-2.63;64.67
63306;BME280;50735;52.060;1.248;2022-12-10T06:42:47;100644.55;;;-2.28;63.81
63306;BME280;50735;52.060;1.248;2022-12-10T06:45:17;100644.45;;;-2.51;64.05
63306;BME280;50735;52.060;1.248;2022-12-10T06:47:44;100648.57;;;-2.76;64.67
63306;BME280;50735;52.060;1.248;2022-12-10T06:50:11;100647.98;;;-2.96;65.91
63306;BME280;50735;52.060;1.248;2022-12-10T06:52:38;100646.78;;;-2.57;65.25
63306;BME280;50735;52.060;1.248;2022-12-10T06:55:05;100649.40;;;-2.33;64.27
63306;BME280;50735;52.060;1.248;2022-12-10T06:57:31;100647.52;;;-2.14;63.64
63306;BME280;50735;52.060;1.248;2022-12-10T06:59:58;100649.78;;;-2.14;63.88
63306;BME280;50735;52.060;1.248;2022-12-10T07:02:25;100648.86;;;-2.13;63.73
63306;BME280;50735;52.060;1.248;2022-12-10T07:04:52;100651.56;;;-2.29;64.52
63306;BME280;50735;52.060;1.248;2022-12-10T07:07:18;100646.46;;;-1.89;63.32
63306;BME280;50735;52.060;1.248;2022-12-10T07:09:46;100647.19;;;-1.50;62.19
63306;BME280;50735;52.060;1.248;2022-12-10T07:12:13;100649.17;;;-1.17;61.36
63306;BME280;50735;52.060;1.248;2022-12-10T07:14:40;100654.30;;;-0.93;60.68
63306;BME280;50735;52.060;1.248;2022-12-10T07:17:06;100657.18;;;-0.96;60.03
63306;BME280;50735;52.060;1.248;2022-12-10T07:19:33;100655.84;;;-0.62;59.58
63306;BME280;50735;52.060;1.248;2022-12-10T07:21:59;100657.23;;;-1.38;60.65
63306;BME280;50735;52.060;1.248;2022-12-10T07:24:26;100658.12;;;-1.96;62.75
63306;BME280;50735;52.060;1.248;2022-12-10T07:26:53;100653.32;;;-1.87;63.53
63306;BME280;50735;52.060;1.248;2022-12-10T07:29:21;100653.75;;;-2.10;64.04
63306;BME280;50735;52.060;1.248;2022-12-10T07:31:49;100655.69;;;-2.21;65.21
63306;BME280;50735;52.060;1.248;2022-12-10T07:34:15;100650.73;;;-1.74;63.65
63306;BME280;50735;52.060;1.248;2022-12-10T07:36:42;100654.55;;;-1.28;62.49
63306;BME280;50735;52.060;1.248;2022-12-10T07:39:10;100654.92;;;-1.07;61.29
63306;BME280;50735;52.060;1.248;2022-12-10T07:41:37;100659.73;;;-1.28;61.97
63306;BME280;50735;52.060;1.248;2022-12-10T07:44:04;100661.68;;;-1.34;62.35
63306;BME280;50735;52.060;1.248;2022-12-10T07:46:31;100665.25;;;-0.94;61.02
63306;BME280;50735;52.060;1.248;2022-12-10T07:49:00;100670.99;;;-0.84;60.14
63306;BME280;50735;52.060;1.248;2022-12-10T07:51:28;100672.63;;;-0.52;59.91
63306;BME280;50735;52.060;1.248;2022-12-10T07:53:55;100676.70;;;-0.94;61.03
63306;BME280;50735;52.060;1.248;2022-12-10T07:56:23;100680.70;;;-0.97;61.32
63306;BME280;50735;52.060;1.248;2022-12-10T07:58:51;100683.55;;;-1.15;61.60
63306;BME280;50735;52.060;1.248;2022-12-10T08:01:20;100685.56;;;-1.64;63.22
63306;BME280;50735;52.060;1.248;2022-12-10T08:03:48;100688.36;;;-1.54;63.24
63306;BME280;50735;52.060;1.248;2022-12-10T08:06:17;100691.23;;;-1.59;63.86
63306;BME280;50735;52.060;1.248;2022-12-10T08:08:45;100693.04;;;-2.15;64.80
63306;BME280;50735;52.060;1.248;2022-12-10T08:11:12;100689.94;;;-2.40;65.17
63306;BME280;50735;52.060;1.248;2022-12-10T08:13:40;100689.95;;;-1.98;64.33
63306;BME280;50735;52.060;1.248;2022-12-10T08:16:11;100689.88;;;-2.38;65.60
63306;BME280;50735;52.060;1.248;2022-12-10T08:18:39;100695.42;;;-3.01;67.69
63306;BME280;50735;52.060;1.248;2022-12-10T08:21:08;100696.62;;;-3.09;68.34
63306;BME280;50735;52.060;1.248;2022-12-10T08:23:36;100698.51;;;-2.33;66.66
63306;BME280;50735;52.060;1.248;2022-12-10T08:26:03;100701.05;;;-2.91;67.81
63306;BME280;50735;52.060;1.248;2022-12-10T08:28:30;100701.93;;;-2.59;66.56
63306;BME280;50735;52.060;1.248;2022-12-10T08:30:57;100704.78;;;-2.91;67.85
63306;BME280;50735;52.060;1.248;2022-12-10T08:33:25;100704.26;;;-2.45;66.48
63306;BME280;50735;52.060;1.248;2022-12-10T08:35:52;100707.62;;;-2.99;67.89
63306;BME280;50735;52.060;1.248;2022-12-10T08:38:19;100709.21;;;-3.20;68.93
63306;BME280;50735;52.060;1.248;2022-12-10T08:40:45;100711.88;;;-3.03;68.35
63306;BME280;50735;52.060;1.248;2022-12-10T08:43:12;100714.23;;;-2.87;67.41
63306;BME280;50735;52.060;1.248;2022-12-10T08:45:39;100713.76;;;-2.54;67.16
63306;BME280;50735;52.060;1.248;2022-12-10T08:48:06;100711.05;;;-2.41;66.30
63306;BME280;50735;52.060;1.248;2022-12-10T08:50:33;100709.94;;;-1.90;65.11
63306;BME280;50735;52.060;1.248;2022-12-10T08:53:00;100710.00;;;-2.15;65.02
63306;BME280;50735;52.060;1.248;2022-12-10T08:55:26;100706.36;;;-2.43;65.66
63306;BME280;50735;52.060;1.248;2022-12-10T08:57:53;100710.44;;;-2.55;66.95
63306;BME280;50735;52.060;1.248;2022-12-10T09:00:20;100705.76;;;-2.40;66.06
63306;BME280;50735;52.060;1.248;2022-12-10T09:02:48;100710.95;;;-2.44;66.04
63306;BME280;50735;52.060;1.248;2022-12-10T09:05:14;100711.96;;;-2.28;65.53
63306;BME280;50735;52.060;1.248;2022-12-10T09:07:41;100710.71;;;-2.40;65.26
63306;BME280;50735;52.060;1.248;2022-12-10T09:10:09;100717.29;;;-2.32;64.78
63306;BME280;50735;52.060;1.248;2022-12-10T09:12:36;100719.18;;;-2.22;64.83
63306;BME280;50735;52.060;1.248;2022-12-10T09:15:04;100715.28;;;-1.77;63.61
63306;BME280;50735;52.060;1.248;2022-12-10T09:17:31;100715.11;;;-1.88;63.70
63306;BME280;50735;52.060;1.248;2022-12-10T09:19:58;100707.37;;;-1.84;63.57
63306;BME280;50735;52.060;1.248;2022-12-10T09:22:25;100706.22;;;-2.02;63.79
63306;BME280;50735;52.060;1.248;2022-12-10T09:24:52;100706.73;;;-1.83;63.86
63306;BME280;50735;52.060;1.248;2022-12-10T09:27:19;100706.06;;;-1.66;63.30
63306;BME280;50735;52.060;1.248;2022-12-10T09:29:46;100704.60;;;-1.55;62.43
63306;BME280;50735;52.060;1.248;2022-12-10T09:32:12;100704.33;;;-1.28;61.63
63306;BME280;50735;52.060;1.248;2022-12-10T09:34:39;100703.95;;;-1.17;61.66
63306;BME280;50735;52.060;1.248;2022-12-10T09:37:06;100705.18;;;-1.02;60.37
63306;BME280;50735;52.060;1.248;2022-12-10T09:39:33;100706.19;;;-0.58;59.57
63306;BME280;50735;52.060;1.248;2022-12-10T09:42:13;100709.36;;;-0.10;59.34
63306;BME280;50735;52.060;1.248;2022-12-10T09:44:51;100714.19;;;-0.57;58.89
63306;BME280;50735;52.060;1.248;2022-12-10T09:47:26;100717.37;;;-0.70;59.07
63306;BME280;50735;52.060;1.248;2022-12-10T09:50:01;100721.63;;;-0.72;58.79
63306;BME280;50735;52.060;1.248;2022-12-10T09:52:37;100723.26;;;-0.77;58.97
63306;BME280;50735;52.060;1.248;2022-12-10T09:55:11;100723.52;;;-0.52;58.10
63306;BME280;50735;52.060;1.248;2022-12-10T09:57:41;100726.68;;;0.04;57.05
63306;BME280;50735;52.060;1.248;2022-12-10T10:00:20;100724.06;;;0.38;56.32
63306;BME280;50735;52.060;1.248;2022-12-10T10:02:48;100729.69;;;0.72;55.96
63306;BME280;50735;52.060;1.248;2022-12-10T10:05:21;100737.14;;;0.41;55.50
63306;BME280;50735;52.060;1.248;2022-12-10T10:07:51;100734.24;;;0.55;55.02
63306;BME280;50735;52.060;1.248;2022-12-10T10:10:23;100741.74;;;-0.11;55.22
63306;BME280;50735;52.060;1.248;2022-12-10T10:12:52;100733.01;;;0.34;55.11
63306;BME280;50735;52.060;1.248;2022-12-10T10:15:25;100734.66;;;0.19;55.28
63306;BME280;50735;52.060;1.248;2022-12-10T10:17:54;100733.77;;;-0.07;55.18
63306;BME280;50735;52.060;1.248;2022-12-10T10:20:22;100735.56;;;-0.41;55.20
63306;BME280;50735;52.060;1.248;2022-12-10T10:22:50;100737.70;;;-0.12;55.24
63306;BME280;50735;52.060;1.248;2022-12-10T10:25:18;100739.11;;;0.75;54.10
63306;BME280;50735;52.060;1.248;2022-12-10T10:27:45;100739.29;;;1.36;52.87
63306;BME280;50735;52.060;1.248;2022-12-10T10:30:15;100733.21;;;1.13;52.25
63306;BME280;50735;52.060;1.248;2022-12-10T10:32:49;100731.56;;;1.26;52.12
63306;BME280;50735;52.060;1.248;2022-12-10T10:35:23;100734.56;;;1.51;51.08
63306;BME280;50735;52.060;1.248;2022-12-10T10:37:52;100737.25;;;1.33;51.42
63306;BME280;50735;52.060;1.248;2022-12-10T10:40:26;100742.87;;;1.60;51.03
63306;BME280;50735;52.060;1.248;2022-12-10T10:42:55;100739.49;;;1.98;50.08
63306;BME280;50735;52.060;1.248;2022-12-10T10:45:40;100741.07;;;2.12;49.57
63306;BME280;50735;52.060;1.248;2022-12-10T10:48:11;100744.33;;;2.17;48.91
63306;BME280;50735;52.060;1.248;2022-12-10T10:50:41;100742.04;;;2.02;49.00
63306;BME280;50735;52.060;1.248;2022-12-10T10:53:27;100742.22;;;2.22;48.96
63306;BME280;50735;52.060;1.248;2022-12-10T10:55:58;100736.48;;;3.17;46.67
63306;BME280;50735;52.060;1.248;2022-12-10T10:58:26;100740.87;;;3.14;47.09
63306;BME280;50735;52.060;1.248;2022-12-10T11:00:56;100737.93;;;3.48;46.33
63306;BME280;50735;52.060;1.248;2022-12-10T11:03:23;100736.12;;;3.16;45.55
63306;BME280;50735;52.060;1.248;2022-12-10T11:05:51;100734.85;;;3.34;45.61
63306;BME280;50735;52.060;1.248;2022-12-10T11:08:19;100728.60;;;3.75;44.86
63306;BME280;50735;52.060;1.248;2022-12-10T11:10:48;100725.79;;;4.06;44.14
63306;BME280;50735;52.060;1.248;2022-12-10T11:13:21;100723.97;;;4.00;44.43
63306;BME280;50735;52.060;1.248;2022-12-10T11:15:55;100725.25;;;3.41;44.61
63306;BME280;50735;52.060;1.248;2022-12-10T11:18:26;100716.66;;;3.49;44.87
63306;BME280;50735;52.060;1.248;2022-12-10T11:20:58;100716.75;;;4.29;43.93
63306;BME280;50735;52.060;1.248;2022-12-10T11:23:28;100717.46;;;4.61;43.10
63306;BME280;50735;52.060;1.248;2022-12-10T11:26:05;100719.67;;;4.26;43.13
63306;BME280;50735;52.060;1.248;2022-12-10T11:28:42;100720.11;;;5.23;42.53
63306;BME280;50735;52.060;1.248;2022-12-10T11:31:27;100720.68;;;4.96;42.18
63306;BME280;50735;52.060;1.248;2022-12-10T11:34:02;100718.99;;;5.04;42.49
63306;BME280;50735;52.060;1.248;2022-12-10T11:36:36;100719.53;;;4.82;41.97
63306;BME280;50735;52.060;1.248;2022-12-10T11:39:15;100716.20;;;5.28;41.16
63306;BME280;50735;52.060;1.248;2022-12-10T11:41:49;100713.62;;;5.84;40.61
63306;BME280;50735;52.060;1.248;2022-12-10T11:44:24;100715.20;;;5.65;40.18
63306;BME280;50735;52.060;1.248;2022-12-10T11:47:02;100716.99;;;5.81;40.15
63306;BME280;50735;52.060;1.248;2022-12-10T11:49:38;100716.56;;;5.54;40.77
63306;BME280;50735;52.060;1.248;2022-12-10T11:52:16;100716.52;;;5.86;40.13
63306;BME280;50735;52.060;1.248;2022-12-10T11:54:56;100715.93;;;5.81;40.97
63306;BME280;50735;52.060;1.248;2022-12-10T11:57:30;100714.81;;;5.74;40.74
63306;BME280;50735;52.060;1.248;2022-12-10T12:00:13;100714.86;;;5.22;41.71
63306;BME280;50735;52.060;1.248;2022-12-10T12:03:27;100717.12;;;5.22;41.57
63306;BME280;50735;52.060;1.248;2022-12-10T12:06:07;100718.82;;;5.67;41.27
63306;BME280;50735;52.060;1.248;2022-12-10T12:08:45;100716.97;;;5.19;41.58
63306;BME280;50735;52.060;1.248;2022-12-10T12:11:22;100714.75;;;5.06;42.08
63306;BME280;50735;52.060;1.248;2022-12-10T12:13:56;100715.45;;;5.12;41.96
63306;BME280;50735;52.060;1.248;2022-12-10T12:16:30;100718.25;;;5.53;41.11
63306;BME280;50735;52.060;1.248;2022-12-10T12:19:01;100719.54;;;5.43;41.35
63306;BME280;50735;52.060;1.248;2022-12-10T12:21:30;100717.43;;;5.29;41.80
63306;BME280;50735;52.060;1.248;2022-12-10T12:23:58;100720.14;;;5.59;41.36
63306;BME280;50735;52.060;1.248;2022-12-10T12:26:29;100722.93;;;5.17;41.82
63306;BME280;50735;52.060;1.248;2022-12-10T12:29:05;100725.11;;;5.59;41.15
63306;BME280;50735;52.060;1.248;2022-12-10T12:31:37;100726.68;;;5.67;40.64
63306;BME280;50735;52.060;1.248;2022-12-10T12:34:13;100721.15;;;6.07;41.11
63306;BME280;50735;52.060;1.248;2022-12-10T12:36:44;100719.12;;;6.10;40.46
63306;BME280;50735;52.060;1.248;2022-12-10T12:39:20;100711.81;;;6.63;40.11
63306;BME280;50735;52.060;1.248;2022-12-10T12:41:55;100711.18;;;6.99;39.49
63306;BME280;50735;52.060;1.248;2022-12-10T12:44:28;100709.03;;;6.62;39.41
63306;BME280;50735;52.060;1.248;2022-12-10T12:46:56;100707.79;;;6.86;39.77
63306;BME280;50735;52.060;1.248;2022-12-10T12:49:28;100703.77;;;7.44;39.53
63306;BME280;50735;52.060;1.248;2022-12-10T12:52:00;100700.25;;;7.42;39.09
63306;BME280;50735;52.060;1.248;2022-12-10T12:54:28;100702.31;;;7.42;39.02
63306;BME280;50735;52.060;1.248;2022-12-10T12:57:01;100706.09;;;7.87;38.70
63306;BME280;50735;52.060;1.248;2022-12-10T12:59:39;100705.33;;;7.82;37.78
63306;BME280;50735;52.060;1.248;2022-12-10T13:02:17;100705.71;;;7.17;38.74
63306;BME280;50735;52.060;1.248;2022-12-10T13:04:49;100705.09;;;7.32;38.60